sensor_id;sensor_type;location;lat;lon;timestamp;temperature;humidity
15937;DHT22;9163;48.818;8.976;2024-01-15T00:00:38;-2.80;99.90
15937;DHT22;9163;48.818;8.976;2024-01-15T00:03:07;-2.80;99.90
15937;DHT22;9163;48.818;8.976;2024-01-15T00:05:34;-2.70;99.90
15937;DHT22;9163;48.818;8.976;2024-01-15T00:08:01;-2.70;99.90
15937;DHT22;9163;48.818;8.976;2024-01-15T00:10:28;-2.60;99.90
15937;DHT22;9163;48.818;8.976;2024-01-15T00:12:55;-2.50;99.90
15937;DHT22;9163;48.818;8.976;2024-01-15T00:15:23;-2.50;99.90
15937;DHT22;9163;48.818;8.976;2024-01-15T00:17:51;-2.50;99.90
15937;DHT22;9163;48.818;8.976;2024-01-15T00:20:19;-2.50;99.90
15937;DHT22;9163;48.818;8.976;2024-01-15T00:22:46;-2.60;99.90
15937;DHT22;9163;48.818;8.976;2024-01-15T00:25:14;-2.60;99.90
15937;DHT22;9163;48.818;8.976;2024-01-15T00:27:41;-2.60;99.90
15937;DHT22;9163;48.818;8.976;2024-01-15T00:30:09;-2.60;99.90
15937;DHT22;9163;48.818;8.976;2024-01-15T00:32:36;-2.60;99.90
15937;DHT22;9163;48.818;8.976;2024-01-15T00:35:04;-2.60;99.90
15937;DHT22;9163;48.818;8.976;2024-01-15T00:37:33;-2.60;99.90
15937;DHT22;9163;48.818;8.976;2024-01-15T00:40:00;-2.60;99.90
15937;DHT22;9163;48.818;8.976;2024-01-15T00:42:27;-2.60;99.90
15937;DHT22;9163;48.818;8.976;2024-01-15T00:44:54;-2.50;99.90
15937;DHT22;9163;48.818;8.976;2024-01-15T00:47:22;-2.60;99.90
15937;DHT22;9163;48.818;8.976;2024-01-15T00:49:49;-2.50;99.90
15937;DHT22;9163;48.818;8.976;2024-01-15T00:52:16;-2.50;99.90
15937;DHT22;9163;48.818;8.976;2024-01-15T00:54:45;-2.50;99.90
15937;DHT22;9163;48.818;8.976;2024-01-15T00:57:12;-2.40;99.90
15937;DHT22;9163;48.818;8.976;2024-01-15T00:59:39;-2.50;99.90
15937;DHT22;9163;48.818;8.976;2024-01-15T01:02:07;-2.40;99.90
15937;DHT22;9163;48.818;8.976;2024-01-15T01:04:34;-2.40;99.90
15937;DHT22;9163;48.818;8.976;2024-01-15T01:07:01;-2.40;99.90
15937;DHT22;9163;48.818;8.976;2024-01-15T01:09:28;-2.40;99.90
15937;DHT22;9163;48.818;8.976;2024-01-15T01:11:57;-2.40;99.90
15937;DHT22;9163;48.818;8.976;2024-01-15T01:14:24;-2.30;99.90
15937;DHT22;9163;48.818;8.976;2024-01-15T01:16:52;-2.20;99.90
15937;DHT22;9163;48.818;8.976;2024-01-15T01:19:19;-2.20;99.90
15937;DHT22;9163;48.818;8.976;2024-01-15T01:21:46;-2.20;99.90
15937;DHT22;9163;48.818;8.976;2024-01-15T01:24:13;-2.10;99.90
15937;DHT22;9163;48.818;8.976;2024-01-15T01:26:40;-2.10;99.90
15937;DHT22;9163;48.818;8.976;2024-01-15T01:29:09;-2.10;99.90
15937;DHT22;9163;48.818;8.976;2024-01-15T01:31:36;-2.00;99.90
15937;DHT22;9163;48.818;8.976;2024-01-15T01:34:09;-2.00;99.90
15937;DHT22;9163;48.818;8.976;2024-01-15T01:36:36;-2.00;99.90
15937;DHT22;9163;48.818;8.976;2024-01-15T01:39:03;-2.10;99.90
15937;DHT22;9163;48.818;8.976;2024-01-15T01:41:31;-2.10;99.90
15937;DHT22;9163;48.818;8.976;2024-01-15T01:43:59;-2.10;99.90
15937;DHT22;9163;48.818;8.976;2024-01-15T01:46:28;-2.10;99.90
15937;DHT22;9163;48.818;8.976;2024-01-15T01:48:55;-2.10;99.90
15937;DHT22;9163;48.818;8.976;2024-01-15T01:51:24;-2.10;99.90
15937;DHT22;9163;48.818;8.976;2024-01-15T01:53:52;-2.10;99.90
15937;DHT22;9163;48.818;8.976;2024-01-15T01:56:19;-2.20;99.90
15937;DHT22;9163;48.818;8.976;2024-01-15T01:58:47;-2.20;99.90
15937;DHT22;9163;48.818;8.976;2024-01-15T02:01:15;-2.20;99.90
15937;DHT22;9163;48.818;8.976;2024-01-15T02:03:45;-2.20;99.90
15937;DHT22;9163;48.818;8.976;2024-01-15T02:06:12;-2.10;99.90
15937;DHT22;9163;48.818;8.976;2024-01-15T02:08:42;-2.10;99.90
15937;DHT22;9163;48.818;8.976;2024-01-15T02:11:10;-2.10;99.90
15937;DHT22;9163;48.818;8.976;2024-01-15T02:13:38;-2.10;99.90
15937;DHT22;9163;48.818;8.976;2024-01-15T02:16:06;-2.20;99.90
15937;DHT22;9163;48.818;8.976;2024-01-15T02:18:48;-2.20;99.90
15937;DHT22;9163;48.818;8.976;2024-01-15T02:21:16;-2.10;99.90
15937;DHT22;9163;48.818;8.976;2024-01-15T02:23:45;-2.10;99.90
15937;DHT22;9163;48.818;8.976;2024-01-15T02:26:13;-2.10;99.90
15937;DHT22;9163;48.818;8.976;2024-01-15T02:28:41;-2.10;99.90
15937;DHT22;9163;48.818;8.976;2024-01-15T02:31:10;-2.20;99.90
15937;DHT22;9163;48.818;8.976;2024-01-15T02:33:37;-2.10;99.90
15937;DHT22;9163;48.818;8.976;2024-01-15T02:36:05;-2.10;99.90
15937;DHT22;9163;48.818;8.976;2024-01-15T02:38:33;-2.10;99.90
15937;DHT22;9163;48.818;8.976;2024-01-15T02:41:01;-2.10;99.90
15937;DHT22;9163;48.818;8.976;2024-01-15T02:43:29;-2.10;99.90
15937;DHT22;9163;48.818;8.976;2024-01-15T02:45:56;-2.10;99.90
15937;DHT22;9163;48.818;8.976;2024-01-15T02:48:23;-2.00;99.90
15937;DHT22;9163;48.818;8.976;2024-01-15T02:50:51;-2.00;99.90
15937;DHT22;9163;48.818;8.976;2024-01-15T02:53:18;-2.00;99.90
15937;DHT22;9163;48.818;8.976;2024-01-15T02:55:46;-2.00;99.90
15937;DHT22;9163;48.818;8.976;2024-01-15T02:58:14;-1.90;99.90
15937;DHT22;9163;48.818;8.976;2024-01-15T03:00:42;-1.90;99.90
15937;DHT22;9163;48.818;8.976;2024-01-15T03:03:09;-1.90;99.90
15937;DHT22;9163;48.818;8.976;2024-01-15T03:05:36;-1.90;99.90
15937;DHT22;9163;48.818;8.976;2024-01-15T03:08:04;-1.90;99.90
15937;DHT22;9163;48.818;8.976;2024-01-15T03:10:31;-1.90;99.90
15937;DHT22;9163;48.818;8.976;2024-01-15T03:12:59;-1.80;99.90
15937;DHT22;9163;48.818;8.976;2024-01-15T03:15:27;-1.80;99.90
15937;DHT22;9163;48.818;8.976;2024-01-15T03:17:55;-1.80;99.90
15937;DHT22;9163;48.818;8.976;2024-01-15T03:20:22;-1.70;99.90
15937;DHT22;9163;48.818;8.976;2024-01-15T03:22:49;-1.70;99.90
15937;DHT22;9163;48.818;8.976;2024-01-15T03:25:19;-1.70;99.90
15937;DHT22;9163;48.818;8.976;2024-01-15T03:27:46;-1.70;99.90
15937;DHT22;9163;48.818;8.976;2024-01-15T03:30:14;-1.60;97.60
15937;DHT22;9163;48.818;8.976;2024-01-15T03:32:42;-1.70;99.90
15937;DHT22;9163;48.818;8.976;2024-01-15T03:35:10;-1.60;99.10
15937;DHT22;9163;48.818;8.976;2024-01-15T03:37:37;-1.60;95.20
15937;DHT22;9163;48.818;8.976;2024-01-15T03:40:05;-1.60;90.20
15937;DHT22;9163;48.818;8.976;2024-01-15T03:42:32;-1.50;80.20
15937;DHT22;9163;48.818;8.976;2024-01-15T03:44:59;-1.50;69.80
15937;DHT22;9163;48.818;8.976;2024-01-15T03:47:27;-1.50;68.50
15937;DHT22;9163;48.818;8.976;2024-01-15T03:49:55;-1.50;71.90
15937;DHT22;9163;48.818;8.976;2024-01-15T03:52:22;-1.40;67.40
15937;DHT22;9163;48.818;8.976;2024-01-15T03:54:49;-1.40;68.30
15937;DHT22;9163;48.818;8.976;2024-01-15T03:57:17;-1.40;66.60
15937;DHT22;9163;48.818;8.976;2024-01-15T03:59:44;-1.40;64.00
15937;DHT22;9163;48.818;8.976;2024-01-15T04:02:13;-1.40;68.70
15937;DHT22;9163;48.818;8.976;2024-01-15T04:04:41;-1.40;60.00
15937;DHT22;9163;48.818;8.976;2024-01-15T04:07:10;-1.40;63.30
15937;DHT22;9163;48.818;8.976;2024-01-15T04:09:37;-1.40;59.70
15937;DHT22;9163;48.818;8.976;2024-01-15T04:12:05;-1.40;59.50
15937;DHT22;9163;48.818;8.976;2024-01-15T04:14:32;-1.40;68.60
15937;DHT22;9163;48.818;8.976;2024-01-15T04:16:59;-1.40;61.80
15937;DHT22;9163;48.818;8.976;2024-01-15T04:19:26;-1.40;72.00
15937;DHT22;9163;48.818;8.976;2024-01-15T04:21:54;-1.40;69.10
15937;DHT22;9163;48.818;8.976;2024-01-15T04:24:22;-1.40;57.40
15937;DHT22;9163;48.818;8.976;2024-01-15T04:26:49;-1.40;55.10
15937;DHT22;9163;48.818;8.976;2024-01-15T04:29:17;-1.40;57.30
15937;DHT22;9163;48.818;8.976;2024-01-15T04:31:46;-1.30;51.60
15937;DHT22;9163;48.818;8.976;2024-01-15T04:34:14;-1.40;50.80
15937;DHT22;9163;48.818;8.976;2024-01-15T04:36:41;-1.40;54.70
15937;DHT22;9163;48.818;8.976;2024-01-15T04:39:08;-1.30;51.90
15937;DHT22;9163;48.818;8.976;2024-01-15T04:41:38;-1.30;43.40
15937;DHT22;9163;48.818;8.976;2024-01-15T04:44:06;-1.30;42.10
15937;DHT22;9163;48.818;8.976;2024-01-15T04:46:33;-1.30;50.00
15937;DHT22;9163;48.818;8.976;2024-01-15T04:49:00;-1.30;43.20
15937;DHT22;9163;48.818;8.976;2024-01-15T04:51:28;-1.40;43.90
15937;DHT22;9163;48.818;8.976;2024-01-15T04:53:55;-1.40;42.40
15937;DHT22;9163;48.818;8.976;2024-01-15T04:56:22;-1.40;50.50
15937;DHT22;9163;48.818;8.976;2024-01-15T04:58:51;-1.40;59.30
15937;DHT22;9163;48.818;8.976;2024-01-15T05:01:18;-1.40;56.00
15937;DHT22;9163;48.818;8.976;2024-01-15T05:03:45;-1.40;57.00
15937;DHT22;9163;48.818;8.976;2024-01-15T05:06:13;-1.40;78.00
15937;DHT22;9163;48.818;8.976;2024-01-15T05:08:40;-1.40;79.10
15937;DHT22;9163;48.818;8.976;2024-01-15T05:11:07;-1.40;85.30
15937;DHT22;9163;48.818;8.976;2024-01-15T05:13:34;-1.40;85.40
15937;DHT22;9163;48.818;8.976;2024-01-15T05:16:04;-1.40;90.50
15937;DHT22;9163;48.818;8.976;2024-01-15T05:18:31;-1.40;86.10
15937;DHT22;9163;48.818;8.976;2024-01-15T05:20:58;-1.40;96.50
15937;DHT22;9163;48.818;8.976;2024-01-15T05:23:25;-1.50;99.90
15937;DHT22;9163;48.818;8.976;2024-01-15T05:25:53;-1.50;99.90
15937;DHT22;9163;48.818;8.976;2024-01-15T05:28:20;-1.40;99.90
15937;DHT22;9163;48.818;8.976;2024-01-15T05:30:47;-1.40;99.90
15937;DHT22;9163;48.818;8.976;2024-01-15T05:33:17;-1.40;99.90
15937;DHT22;9163;48.818;8.976;2024-01-15T05:35:45;-1.50;99.90
15937;DHT22;9163;48.818;8.976;2024-01-15T05:38:12;-1.50;99.90
15937;DHT22;9163;48.818;8.976;2024-01-15T05:40:40;-1.50;99.90
15937;DHT22;9163;48.818;8.976;2024-01-15T05:43:07;-1.60;99.90
15937;DHT22;9163;48.818;8.976;2024-01-15T05:45:35;-1.60;99.90
15937;DHT22;9163;48.818;8.976;2024-01-15T05:48:02;-1.60;99.90
15937;DHT22;9163;48.818;8.976;2024-01-15T05:50:31;-1.70;99.90
15937;DHT22;9163;48.818;8.976;2024-01-15T05:52:58;-1.70;99.90
15937;DHT22;9163;48.818;8.976;2024-01-15T05:55:25;-1.70;99.90
15937;DHT22;9163;48.818;8.976;2024-01-15T05:57:53;-1.70;99.90
15937;DHT22;9163;48.818;8.976;2024-01-15T06:00:20;-1.60;99.90
15937;DHT22;9163;48.818;8.976;2024-01-15T06:02:47;-1.60;99.90
15937;DHT22;9163;48.818;8.976;2024-01-15T06:05:14;-1.60;99.90
15937;DHT22;9163;48.818;8.976;2024-01-15T06:07:43;-1.70;99.90
15937;DHT22;9163;48.818;8.976;2024-01-15T06:10:10;-1.60;99.90
15937;DHT22;9163;48.818;8.976;2024-01-15T06:12:37;-1.60;99.90
15937;DHT22;9163;48.818;8.976;2024-01-15T06:15:05;-1.70;99.90
15937;DHT22;9163;48.818;8.976;2024-01-15T06:17:32;-1.70;99.90
15937;DHT22;9163;48.818;8.976;2024-01-15T06:19:59;-1.70;99.90
15937;DHT22;9163;48.818;8.976;2024-01-15T06:22:26;-1.70;99.90
15937;DHT22;9163;48.818;8.976;2024-01-15T06:24:55;-1.70;99.90
15937;DHT22;9163;48.818;8.976;2024-01-15T06:27:22;-1.70;99.90
15937;DHT22;9163;48.818;8.976;2024-01-15T06:29:50;-1.70;99.90
15937;DHT22;9163;48.818;8.976;2024-01-15T06:32:17;-1.70;99.90
15937;DHT22;9163;48.818;8.976;2024-01-15T06:34:44;-1.70;99.90
15937;DHT22;9163;48.818;8.976;2024-01-15T06:37:11;-1.70;99.90
15937;DHT22;9163;48.818;8.976;2024-01-15T06:39:38;-1.70;99.90
15937;DHT22;9163;48.818;8.976;2024-01-15T06:42:07;-1.60;99.90
15937;DHT22;9163;48.818;8.976;2024-01-15T06:44:34;-1.60;99.90
15937;DHT22;9163;48.818;8.976;2024-01-15T06:47:01;-1.60;99.90
15937;DHT22;9163;48.818;8.976;2024-01-15T06:49:29;-1.50;99.90
15937;DHT22;9163;48.818;8.976;2024-01-15T06:51:56;-1.50;91.10
15937;DHT22;9163;48.818;8.976;2024-01-15T06:54:23;-1.40;82.40
15937;DHT22;9163;48.818;8.976;2024-01-15T06:56:52;-1.40;83.10
15937;DHT22;9163;48.818;8.976;2024-01-15T06:59:21;-1.40;72.90
15937;DHT22;9163;48.818;8.976;2024-01-15T07:01:48;-1.40;71.10
15937;DHT22;9163;48.818;8.976;2024-01-15T07:04:15;-1.40;63.40
15937;DHT22;9163;48.818;8.976;2024-01-15T07:06:42;-1.40;63.20
15937;DHT22;9163;48.818;8.976;2024-01-15T07:09:10;-1.40;54.90
15937;DHT22;9163;48.818;8.976;2024-01-15T07:11:37;-1.40;42.10
15937;DHT22;9163;48.818;8.976;2024-01-15T07:14:04;-1.40;34.70
15937;DHT22;9163;48.818;8.976;2024-01-15T07:16:33;-1.40;35.10
15937;DHT22;9163;48.818;8.976;2024-01-15T07:19:00;-1.30;24.20
15937;DHT22;9163;48.818;8.976;2024-01-15T07:21:27;-1.30;23.10
15937;DHT22;9163;48.818;8.976;2024-01-15T07:23:56;-1.30;19.00
15937;DHT22;9163;48.818;8.976;2024-01-15T07:26:23;-1.30;3.20
15937;DHT22;9163;48.818;8.976;2024-01-15T07:28:51;-1.30;1.00
15937;DHT22;9163;48.818;8.976;2024-01-15T07:31:18;-1.30;1.00
15937;DHT22;9163;48.818;8.976;2024-01-15T07:33:47;-1.30;1.00
15937;DHT22;9163;48.818;8.976;2024-01-15T07:36:14;-1.30;1.00
15937;DHT22;9163;48.818;8.976;2024-01-15T07:38:42;-1.30;1.00
15937;DHT22;9163;48.818;8.976;2024-01-15T07:41:09;-1.30;1.00
15937;DHT22;9163;48.818;8.976;2024-01-15T07:43:41;-1.30;1.00
15937;DHT22;9163;48.818;8.976;2024-01-15T07:46:08;-1.20;1.00
15937;DHT22;9163;48.818;8.976;2024-01-15T07:48:35;-1.20;1.00
15937;DHT22;9163;48.818;8.976;2024-01-15T07:51:04;-1.10;1.00
15937;DHT22;9163;48.818;8.976;2024-01-15T07:53:31;-1.00;1.00
15937;DHT22;9163;48.818;8.976;2024-01-15T07:55:59;-1.00;1.00
15937;DHT22;9163;48.818;8.976;2024-01-15T07:58:26;-1.10;1.00
15937;DHT22;9163;48.818;8.976;2024-01-15T08:00:53;-1.00;1.00
15937;DHT22;9163;48.818;8.976;2024-01-15T08:03:20;-1.00;1.00
15937;DHT22;9163;48.818;8.976;2024-01-15T08:05:47;-1.10;1.00
15937;DHT22;9163;48.818;8.976;2024-01-15T08:08:19;-1.00;1.00
15937;DHT22;9163;48.818;8.976;2024-01-15T08:10:48;-1.00;1.00
15937;DHT22;9163;48.818;8.976;2024-01-15T08:13:15;-1.00;1.00
15937;DHT22;9163;48.818;8.976;2024-01-15T08:15:43;-0.90;1.00
15937;DHT22;9163;48.818;8.976;2024-01-15T08:18:10;-0.90;1.00
15937;DHT22;9163;48.818;8.976;2024-01-15T08:20:37;-0.90;1.00
15937;DHT22;9163;48.818;8.976;2024-01-15T08:23:04;-0.90;1.00
15937;DHT22;9163;48.818;8.976;2024-01-15T08:25:33;-0.80;1.00
15937;DHT22;9163;48.818;8.976;2024-01-15T08:28:00;-0.80;1.00
15937;DHT22;9163;48.818;8.976;2024-01-15T08:30:28;-0.80;1.00
15937;DHT22;9163;48.818;8.976;2024-01-15T08:32:56;-0.80;1.00
15937;DHT22;9163;48.818;8.976;2024-01-15T08:35:25;-0.70;1.00
15937;DHT22;9163;48.818;8.976;2024-01-15T08:37:52;-0.70;1.00
15937;DHT22;9163;48.818;8.976;2024-01-15T08:40:20;-0.70;1.00
15937;DHT22;9163;48.818;8.976;2024-01-15T08:42:48;-0.70;1.00
15937;DHT22;9163;48.818;8.976;2024-01-15T08:45:16;-0.60;1.00
15937;DHT22;9163;48.818;8.976;2024-01-15T08:47:43;-0.60;1.00
15937;DHT22;9163;48.818;8.976;2024-01-15T08:50:10;-0.50;1.00
15937;DHT22;9163;48.818;8.976;2024-01-15T08:52:37;-0.60;1.00
15937;DHT22;9163;48.818;8.976;2024-01-15T08:55:05;-0.50;1.00
15937;DHT22;9163;48.818;8.976;2024-01-15T08:57:33;-0.50;1.00
15937;DHT22;9163;48.818;8.976;2024-01-15T09:00:03;-0.50;1.00
15937;DHT22;9163;48.818;8.976;2024-01-15T09:02:34;-0.50;1.00
15937;DHT22;9163;48.818;8.976;2024-01-15T09:05:03;-0.50;1.00
15937;DHT22;9163;48.818;8.976;2024-01-15T09:07:31;-0.50;1.00
15937;DHT22;9163;48.818;8.976;2024-01-15T09:09:58;-0.50;1.00
15937;DHT22;9163;48.818;8.976;2024-01-15T09:12:27;-0.40;1.00
15937;DHT22;9163;48.818;8.976;2024-01-15T09:14:55;-0.40;1.00
15937;DHT22;9163;48.818;8.976;2024-01-15T09:17:24;-0.40;1.00
15937;DHT22;9163;48.818;8.976;2024-01-15T09:19:51;-0.40;1.00
15937;DHT22;9163;48.818;8.976;2024-01-15T09:22:18;-0.40;1.00
15937;DHT22;9163;48.818;8.976;2024-01-15T09:24:46;-0.40;1.00
15937;DHT22;9163;48.818;8.976;2024-01-15T09:27:13;-0.40;1.00
15937;DHT22;9163;48.818;8.976;2024-01-15T09:29:41;-0.40;1.00
15937;DHT22;9163;48.818;8.976;2024-01-15T09:32:11;-0.40;1.00
15937;DHT22;9163;48.818;8.976;2024-01-15T09:34:40;-0.30;1.00
15937;DHT22;9163;48.818;8.976;2024-01-15T09:37:08;-0.30;1.00
15937;DHT22;9163;48.818;8.976;2024-01-15T09:39:35;-0.20;1.00
15937;DHT22;9163;48.818;8.976;2024-01-15T09:42:03;-0.20;1.00
15937;DHT22;9163;48.818;8.976;2024-01-15T09:44:31;-0.30;1.00
15937;DHT22;9163;48.818;8.976;2024-01-15T09:46:58;-0.30;1.00
15937;DHT22;9163;48.818;8.976;2024-01-15T09:49:25;-0.30;1.00
15937;DHT22;9163;48.818;8.976;2024-01-15T09:51:55;-0.30;1.00
15937;DHT22;9163;48.818;8.976;2024-01-15T09:54:23;-0.20;1.00
15937;DHT22;9163;48.818;8.976;2024-01-15T09:56:50;-0.20;1.00
15937;DHT22;9163;48.818;8.976;2024-01-15T09:59:18;-0.20;1.00
15937;DHT22;9163;48.818;8.976;2024-01-15T10:01:46;-0.20;1.00
15937;DHT22;9163;48.818;8.976;2024-01-15T10:04:15;-0.20;1.00
15937;DHT22;9163;48.818;8.976;2024-01-15T10:06:44;-0.30;1.00
15937;DHT22;9163;48.818;8.976;2024-01-15T10:09:15;-0.20;1.00
15937;DHT22;9163;48.818;8.976;2024-01-15T10:11:42;-0.20;1.00
15937;DHT22;9163;48.818;8.976;2024-01-15T10:14:10;-0.10;1.00
15937;DHT22;9163;48.818;8.976;2024-01-15T10:16:38;-0.10;1.00
15937;DHT22;9163;48.818;8.976;2024-01-15T10:19:05;0.00;1.00
15937;DHT22;9163;48.818;8.976;2024-01-15T10:21:33;0.00;1.00
15937;DHT22;9163;48.818;8.976;2024-01-15T10:24:04;0.00;1.00
15937;DHT22;9163;48.818;8.976;2024-01-15T10:26:33;0.00;1.00
15937;DHT22;9163;48.818;8.976;2024-01-15T10:29:01;0.00;1.00
15937;DHT22;9163;48.818;8.976;2024-01-15T10:31:28;0.00;1.00
15937;DHT22;9163;48.818;8.976;2024-01-15T10:34:10;0.00;1.00
15937;DHT22;9163;48.818;8.976;2024-01-15T10:36:39;0.10;1.00
15937;DHT22;9163;48.818;8.976;2024-01-15T10:39:07;0.10;1.00
15937;DHT22;9163;48.818;8.976;2024-01-15T10:41:38;0.00;1.00
15937;DHT22;9163;48.818;8.976;2024-01-15T10:44:10;0.00;1.00
15937;DHT22;9163;48.818;8.976;2024-01-15T10:46:37;0.00;1.00
15937;DHT22;9163;48.818;8.976;2024-01-15T10:49:06;0.00;1.00
15937;DHT22;9163;48.818;8.976;2024-01-15T10:51:33;0.00;1.00
15937;DHT22;9163;48.818;8.976;2024-01-15T10:54:01;0.00;1.00
15937;DHT22;9163;48.818;8.976;2024-01-15T10:56:30;0.10;1.00
15937;DHT22;9163;48.818;8.976;2024-01-15T10:59:00;0.10;1.00
15937;DHT22;9163;48.818;8.976;2024-01-15T11:01:28;0.00;1.00
15937;DHT22;9163;48.818;8.976;2024-01-15T11:03:55;0.00;1.00
15937;DHT22;9163;48.818;8.976;2024-01-15T11:06:24;-0.10;99.90
15937;DHT22;9163;48.818;8.976;2024-01-15T11:08:52;-0.40;99.90
15937;DHT22;9163;48.818;8.976;2024-01-15T11:11:21;-0.40;99.90
15937;DHT22;9163;48.818;8.976;2024-01-15T11:13:49;-0.40;99.90
15937;DHT22;9163;48.818;8.976;2024-01-15T11:16:20;-0.60;99.90
15937;DHT22;9163;48.818;8.976;2024-01-15T11:19:03;-0.60;99.90
15937;DHT22;9163;48.818;8.976;2024-01-15T11:21:42;-0.60;99.90
15937;DHT22;9163;48.818;8.976;2024-01-15T11:24:10;-0.60;99.90
15937;DHT22;9163;48.818;8.976;2024-01-15T11:26:43;-0.60;99.90
15937;DHT22;9163;48.818;8.976;2024-01-15T11:29:31;-0.60;99.90
15937;DHT22;9163;48.818;8.976;2024-01-15T11:32:02;-0.60;99.90
15937;DHT22;9163;48.818;8.976;2024-01-15T11:34:53;-0.60;99.90
15937;DHT22;9163;48.818;8.976;2024-01-15T11:37:21;-0.60;99.90
15937;DHT22;9163;48.818;8.976;2024-01-15T11:39:51;-0.60;99.90
15937;DHT22;9163;48.818;8.976;2024-01-15T11:42:20;-0.60;99.90
15937;DHT22;9163;48.818;8.976;2024-01-15T11:44:48;-0.60;99.90
15937;DHT22;9163;48.818;8.976;2024-01-15T11:47:30;-0.60;99.90
15937;DHT22;9163;48.818;8.976;2024-01-15T11:50:05;-0.70;99.90
15937;DHT22;9163;48.818;8.976;2024-01-15T11:52:35;-0.70;99.90
15937;DHT22;9163;48.818;8.976;2024-01-15T11:55:11;-0.70;99.90
15937;DHT22;9163;48.818;8.976;2024-01-15T11:57:42;-0.70;99.90
15937;DHT22;9163;48.818;8.976;2024-01-15T12:00:12;-0.60;99.90
15937;DHT22;9163;48.818;8.976;2024-01-15T12:02:42;-0.60;99.90
15937;DHT22;9163;48.818;8.976;2024-01-15T12:05:10;-0.50;99.90
15937;DHT22;9163;48.818;8.976;2024-01-15T12:07:39;-0.50;99.90
15937;DHT22;9163;48.818;8.976;2024-01-15T12:10:09;-0.50;99.90
15937;DHT22;9163;48.818;8.976;2024-01-15T12:12:59;-0.60;99.90
15937;DHT22;9163;48.818;8.976;2024-01-15T12:15:29;-0.50;99.90
15937;DHT22;9163;48.818;8.976;2024-01-15T12:18:00;-0.60;99.90
15937;DHT22;9163;48.818;8.976;2024-01-15T12:20:29;-0.70;99.90
15937;DHT22;9163;48.818;8.976;2024-01-15T12:22:57;-0.60;99.90
15937;DHT22;9163;48.818;8.976;2024-01-15T12:25:25;-0.70;99.90
15937;DHT22;9163;48.818;8.976;2024-01-15T12:27:53;-0.70;99.90
15937;DHT22;9163;48.818;8.976;2024-01-15T12:30:21;-0.80;99.90
15937;DHT22;9163;48.818;8.976;2024-01-15T12:32:48;-0.80;99.90
15937;DHT22;9163;48.818;8.976;2024-01-15T12:35:17;-0.80;99.90
15937;DHT22;9163;48.818;8.976;2024-01-15T12:37:44;-0.80;99.90
15937;DHT22;9163;48.818;8.976;2024-01-15T12:40:13;-0.80;99.90
15937;DHT22;9163;48.818;8.976;2024-01-15T12:42:40;-0.80;99.90
15937;DHT22;9163;48.818;8.976;2024-01-15T12:45:09;-0.80;99.90
15937;DHT22;9163;48.818;8.976;2024-01-15T12:47:42;-0.90;99.90
15937;DHT22;9163;48.818;8.976;2024-01-15T12:50:09;-0.80;99.90
15937;DHT22;9163;48.818;8.976;2024-01-15T12:52:41;-0.80;99.90
15937;DHT22;9163;48.818;8.976;2024-01-15T12:55:09;-0.70;99.90
15937;DHT22;9163;48.818;8.976;2024-01-15T12:57:37;-0.80;99.90
15937;DHT22;9163;48.818;8.976;2024-01-15T13:00:06;-0.80;99.90
15937;DHT22;9163;48.818;8.976;2024-01-15T13:02:38;-0.80;99.90
15937;DHT22;9163;48.818;8.976;2024-01-15T13:05:07;-0.80;99.90
15937;DHT22;9163;48.818;8.976;2024-01-15T13:07:35;-0.80;99.90
15937;DHT22;9163;48.818;8.976;2024-01-15T13:10:05;-0.70;99.90
15937;DHT22;9163;48.818;8.976;2024-01-15T13:12:33;-0.60;99.90
15937;DHT22;9163;48.818;8.976;2024-01-15T13:15:00;-0.70;99.90
15937;DHT22;9163;48.818;8.976;2024-01-15T13:17:29;-0.70;99.90
15937;DHT22;9163;48.818;8.976;2024-01-15T13:19:56;-0.60;99.90
15937;DHT22;9163;48.818;8.976;2024-01-15T13:22:24;-0.60;99.90
15937;DHT22;9163;48.818;8.976;2024-01-15T13:24:55;-0.60;99.90
15937;DHT22;9163;48.818;8.976;2024-01-15T13:27:24;-0.50;99.90
15937;DHT22;9163;48.818;8.976;2024-01-15T13:29:51;-0.50;99.90
15937;DHT22;9163;48.818;8.976;2024-01-15T13:32:24;-0.40;99.90
15937;DHT22;9163;48.818;8.976;2024-01-15T13:34:52;-0.40;99.90
15937;DHT22;9163;48.818;8.976;2024-01-15T13:37:19;-0.40;99.90
15937;DHT22;9163;48.818;8.976;2024-01-15T13:39:47;-0.30;99.90
15937;DHT22;9163;48.818;8.976;2024-01-15T13:42:14;-0.40;99.90
15937;DHT22;9163;48.818;8.976;2024-01-15T13:44:43;-0.30;99.90
15937;DHT22;9163;48.818;8.976;2024-01-15T13:47:11;-0.20;99.90
15937;DHT22;9163;48.818;8.976;2024-01-15T13:49:41;-0.30;99.90
15937;DHT22;9163;48.818;8.976;2024-01-15T13:52:09;-0.30;99.90
15937;DHT22;9163;48.818;8.976;2024-01-15T13:54:36;-0.30;99.90
15937;DHT22;9163;48.818;8.976;2024-01-15T13:57:04;-0.30;99.90
15937;DHT22;9163;48.818;8.976;2024-01-15T13:59:32;-0.40;99.90
15937;DHT22;9163;48.818;8.976;2024-01-15T14:02:00;-0.30;99.90
15937;DHT22;9163;48.818;8.976;2024-01-15T14:04:28;-0.30;99.90
15937;DHT22;9163;48.818;8.976;2024-01-15T14:06:55;-0.40;99.90
15937;DHT22;9163;48.818;8.976;2024-01-15T14:09:23;-0.30;99.90
15937;DHT22;9163;48.818;8.976;2024-01-15T14:11:51;-0.30;99.90
15937;DHT22;9163;48.818;8.976;2024-01-15T14:14:18;-0.40;99.90
15937;DHT22;9163;48.818;8.976;2024-01-15T14:16:45;-0.40;99.90
15937;DHT22;9163;48.818;8.976;2024-01-15T14:19:14;-0.30;99.90
15937;DHT22;9163;48.818;8.976;2024-01-15T14:21:41;-0.20;99.90
15937;DHT22;9163;48.818;8.976;2024-01-15T14:24:09;-0.20;99.90
15937;DHT22;9163;48.818;8.976;2024-01-15T14:26:36;-0.20;99.90
15937;DHT22;9163;48.818;8.976;2024-01-15T14:29:03;-0.30;99.90
15937;DHT22;9163;48.818;8.976;2024-01-15T14:31:31;-0.30;99.90
15937;DHT22;9163;48.818;8.976;2024-01-15T14:34:00;-0.30;99.90
15937;DHT22;9163;48.818;8.976;2024-01-15T14:36:30;-0.40;99.90
15937;DHT22;9163;48.818;8.976;2024-01-15T14:38:57;-0.60;99.90
15937;DHT22;9163;48.818;8.976;2024-01-15T14:41:24;-0.60;99.90
15937;DHT22;9163;48.818;8.976;2024-01-15T14:43:52;-0.60;99.90
15937;DHT22;9163;48.818;8.976;2024-01-15T14:46:19;-0.60;99.90
15937;DHT22;9163;48.818;8.976;2024-01-15T14:48:47;-0.70;99.90
15937;DHT22;9163;48.818;8.976;2024-01-15T14:51:14;-0.90;99.90
15937;DHT22;9163;48.818;8.976;2024-01-15T14:53:44;-0.80;99.90
15937;DHT22;9163;48.818;8.976;2024-01-15T14:56:11;-0.90;99.90
15937;DHT22;9163;48.818;8.976;2024-01-15T14:58:39;-0.80;99.90
15937;DHT22;9163;48.818;8.976;2024-01-15T15:01:06;-0.80;99.90
15937;DHT22;9163;48.818;8.976;2024-01-15T15:03:33;-0.80;99.90
15937;DHT22;9163;48.818;8.976;2024-01-15T15:06:00;-0.80;99.90
15937;DHT22;9163;48.818;8.976;2024-01-15T15:08:28;-0.80;99.90
15937;DHT22;9163;48.818;8.976;2024-01-15T15:10:57;-0.80;99.90
15937;DHT22;9163;48.818;8.976;2024-01-15T15:13:24;-0.80;99.90
15937;DHT22;9163;48.818;8.976;2024-01-15T15:15:52;-0.70;99.90
15937;DHT22;9163;48.818;8.976;2024-01-15T15:18:20;-0.80;99.90
15937;DHT22;9163;48.818;8.976;2024-01-15T15:20:48;-0.70;99.90
15937;DHT22;9163;48.818;8.976;2024-01-15T15:23:18;-0.70;99.90
15937;DHT22;9163;48.818;8.976;2024-01-15T15:25:45;-0.70;99.90
15937;DHT22;9163;48.818;8.976;2024-01-15T15:28:14;-0.80;99.90
15937;DHT22;9163;48.818;8.976;2024-01-15T15:30:42;-0.80;99.90
15937;DHT22;9163;48.818;8.976;2024-01-15T15:33:09;-0.80;99.90
15937;DHT22;9163;48.818;8.976;2024-01-15T15:35:36;-0.80;99.90
15937;DHT22;9163;48.818;8.976;2024-01-15T15:38:05;-0.90;99.90
15937;DHT22;9163;48.818;8.976;2024-01-15T15:40:32;-0.90;99.90
15937;DHT22;9163;48.818;8.976;2024-01-15T15:42:59;-0.90;93.50
15937;DHT22;9163;48.818;8.976;2024-01-15T15:45:28;-0.90;97.90
15937;DHT22;9163;48.818;8.976;2024-01-15T15:47:55;-0.90;94.60
15937;DHT22;9163;48.818;8.976;2024-01-15T15:50:22;-0.90;92.40
15937;DHT22;9163;48.818;8.976;2024-01-15T15:52:49;-0.90;99.90
15937;DHT22;9163;48.818;8.976;2024-01-15T15:55:17;-0.90;98.90